sensor_id;sensor_type;location;lat;lon;timestamp;P1;durP1;ratioP1;P2;durP2;ratioP2
4821;SDS011;2425;47.794;13.068;2023-12-20T00:00:37;0.90;;;0.90;;
4821;SDS011;2425;47.794;13.068;2023-12-20T00:03:04;1.10;;;1.10;;
4821;SDS011;2425;47.794;13.068;2023-12-20T00:05:31;1.03;;;1.03;;
4821;SDS011;2425;47.794;13.068;2023-12-20T00:07:58;0.90;;;0.90;;
4821;SDS011;2425;47.794;13.068;2023-12-20T00:10:25;1.20;;;1.17;;
4821;SDS011;2425;47.794;13.068;2023-12-20T00:12:51;1.43;;;0.90;;
4821;SDS011;2425;47.794;13.068;2023-12-20T00:15:18;1.10;;;1.10;;
4821;SDS011;2425;47.794;13.068;2023-12-20T00:17:46;1.10;;;1.10;;
4821;SDS011;2425;47.794;13.068;2023-12-20T00:20:13;1.00;;;1.00;;
4821;SDS011;2425;47.794;13.068;2023-12-20T00:22:40;0.97;;;0.97;;
4821;SDS011;2425;47.794;13.068;2023-12-20T00:25:07;1.03;;;1.03;;
4821;SDS011;2425;47.794;13.068;2023-12-20T00:27:34;0.83;;;0.83;;
4821;SDS011;2425;47.794;13.068;2023-12-20T00:30:01;0.87;;;0.87;;
4821;SDS011;2425;47.794;13.068;2023-12-20T00:32:27;1.20;;;1.20;;
4821;SDS011;2425;47.794;13.068;2023-12-20T00:34:55;1.20;;;1.10;;
4821;SDS011;2425;47.794;13.068;2023-12-20T00:37:22;1.07;;;1.07;;
4821;SDS011;2425;47.794;13.068;2023-12-20T00:39:49;1.00;;;1.00;;
4821;SDS011;2425;47.794;13.068;2023-12-20T00:42:16;1.07;;;1.07;;
4821;SDS011;2425;47.794;13.068;2023-12-20T00:44:42;1.00;;;1.00;;
4821;SDS011;2425;47.794;13.068;2023-12-20T00:47:09;1.10;;;0.83;;
4821;SDS011;2425;47.794;13.068;2023-12-20T00:49:36;0.77;;;0.77;;
4821;SDS011;2425;47.794;13.068;2023-12-20T00:52:05;1.00;;;1.00;;
4821;SDS011;2425;47.794;13.068;2023-12-20T00:54:31;0.93;;;0.93;;
4821;SDS011;2425;47.794;13.068;2023-12-20T00:56:59;1.30;;;1.30;;
4821;SDS011;2425;47.794;13.068;2023-12-20T00:59:26;0.97;;;0.97;;
4821;SDS011;2425;47.794;13.068;2023-12-20T01:01:52;0.87;;;0.87;;
4821;SDS011;2425;47.794;13.068;2023-12-20T01:04:19;0.90;;;0.90;;
4821;SDS011;2425;47.794;13.068;2023-12-20T01:06:46;0.60;;;0.60;;
4821;SDS011;2425;47.794;13.068;2023-12-20T01:09:14;0.87;;;0.87;;
4821;SDS011;2425;47.794;13.068;2023-12-20T01:11:41;0.90;;;0.90;;
4821;SDS011;2425;47.794;13.068;2023-12-20T01:14:07;0.87;;;0.87;;
4821;SDS011;2425;47.794;13.068;2023-12-20T01:16:34;1.10;;;1.10;;
4821;SDS011;2425;47.794;13.068;2023-12-20T01:19:01;1.00;;;1.00;;
4821;SDS011;2425;47.794;13.068;2023-12-20T01:21:28;0.90;;;0.90;;
4821;SDS011;2425;47.794;13.068;2023-12-20T01:23:55;0.90;;;0.90;;
4821;SDS011;2425;47.794;13.068;2023-12-20T01:26:23;0.70;;;0.70;;
4821;SDS011;2425;47.794;13.068;2023-12-20T01:28:50;0.70;;;0.70;;
4821;SDS011;2425;47.794;13.068;2023-12-20T01:31:16;1.00;;;1.00;;
4821;SDS011;2425;47.794;13.068;2023-12-20T01:33:43;0.90;;;0.90;;
4821;SDS011;2425;47.794;13.068;2023-12-20T01:36:10;1.10;;;1.10;;
4821;SDS011;2425;47.794;13.068;2023-12-20T01:38:37;0.80;;;0.80;;
4821;SDS011;2425;47.794;13.068;2023-12-20T01:41:04;0.80;;;0.80;;
4821;SDS011;2425;47.794;13.068;2023-12-20T01:43:32;0.70;;;0.70;;
4821;SDS011;2425;47.794;13.068;2023-12-20T01:45:59;0.83;;;0.83;;
4821;SDS011;2425;47.794;13.068;2023-12-20T01:48:25;1.00;;;1.00;;
4821;SDS011;2425;47.794;13.068;2023-12-20T01:50:54;0.90;;;0.90;;
4821;SDS011;2425;47.794;13.068;2023-12-20T01:53:21;0.80;;;0.80;;
4821;SDS011;2425;47.794;13.068;2023-12-20T01:55:50;0.90;;;0.90;;
4821;SDS011;2425;47.794;13.068;2023-12-20T01:58:17;0.70;;;0.70;;
4821;SDS011;2425;47.794;13.068;2023-12-20T02:00:45;0.93;;;0.93;;
4821;SDS011;2425;47.794;13.068;2023-12-20T02:03:12;0.90;;;0.90;;
4821;SDS011;2425;47.794;13.068;2023-12-20T02:05:39;0.90;;;0.90;;
4821;SDS011;2425;47.794;13.068;2023-12-20T02:08:06;0.90;;;0.90;;
4821;SDS011;2425;47.794;13.068;2023-12-20T02:10:33;0.90;;;0.90;;
4821;SDS011;2425;47.794;13.068;2023-12-20T02:13:00;0.90;;;0.90;;
4821;SDS011;2425;47.794;13.068;2023-12-20T02:15:27;0.70;;;0.70;;
4821;SDS011;2425;47.794;13.068;2023-12-20T02:17:55;1.10;;;1.10;;
4821;SDS011;2425;47.794;13.068;2023-12-20T02:20:22;0.97;;;0.97;;
4821;SDS011;2425;47.794;13.068;2023-12-20T02:22:50;0.90;;;0.90;;
4821;SDS011;2425;47.794;13.068;2023-12-20T02:25:17;0.80;;;0.80;;
4821;SDS011;2425;47.794;13.068;2023-12-20T02:27:43;0.97;;;0.97;;
4821;SDS011;2425;47.794;13.068;2023-12-20T02:30:10;0.80;;;0.80;;
4821;SDS011;2425;47.794;13.068;2023-12-20T02:32:37;0.90;;;0.90;;
4821;SDS011;2425;47.794;13.068;2023-12-20T02:35:04;0.80;;;0.80;;
4821;SDS011;2425;47.794;13.068;2023-12-20T02:37:32;0.67;;;0.67;;
4821;SDS011;2425;47.794;13.068;2023-12-20T02:40:00;0.83;;;0.83;;
4821;SDS011;2425;47.794;13.068;2023-12-20T02:42:28;0.80;;;0.80;;
4821;SDS011;2425;47.794;13.068;2023-12-20T02:44:54;0.70;;;0.70;;
4821;SDS011;2425;47.794;13.068;2023-12-20T02:47:21;1.00;;;1.00;;
4821;SDS011;2425;47.794;13.068;2023-12-20T02:49:48;0.90;;;0.90;;
4821;SDS011;2425;47.794;13.068;2023-12-20T02:52:15;0.97;;;0.97;;
4821;SDS011;2425;47.794;13.068;2023-12-20T02:54:41;0.80;;;0.80;;
4821;SDS011;2425;47.794;13.068;2023-12-20T02:57:09;0.90;;;0.90;;
4821;SDS011;2425;47.794;13.068;2023-12-20T02:59:36;0.60;;;0.60;;
4821;SDS011;2425;47.794;13.068;2023-12-20T03:02:03;0.70;;;0.70;;
4821;SDS011;2425;47.794;13.068;2023-12-20T03:04:30;0.80;;;0.80;;
4821;SDS011;2425;47.794;13.068;2023-12-20T03:06:56;0.70;;;0.70;;
4821;SDS011;2425;47.794;13.068;2023-12-20T03:09:23;1.00;;;1.00;;
4821;SDS011;2425;47.794;13.068;2023-12-20T03:11:50;0.80;;;0.80;;
4821;SDS011;2425;47.794;13.068;2023-12-20T03:14:18;0.87;;;0.87;;
4821;SDS011;2425;47.794;13.068;2023-12-20T03:16:46;0.83;;;0.83;;
4821;SDS011;2425;47.794;13.068;2023-12-20T03:19:13;0.83;;;0.83;;
4821;SDS011;2425;47.794;13.068;2023-12-20T03:21:41;0.70;;;0.70;;
4821;SDS011;2425;47.794;13.068;2023-12-20T03:24:07;0.70;;;0.70;;
4821;SDS011;2425;47.794;13.068;2023-12-20T03:26:34;0.90;;;0.90;;
4821;SDS011;2425;47.794;13.068;2023-12-20T03:29:01;1.00;;;1.00;;
4821;SDS011;2425;47.794;13.068;2023-12-20T03:31:29;0.80;;;0.80;;
4821;SDS011;2425;47.794;13.068;2023-12-20T03:33:55;0.70;;;0.70;;
4821;SDS011;2425;47.794;13.068;2023-12-20T03:36:22;1.00;;;1.00;;
4821;SDS011;2425;47.794;13.068;2023-12-20T03:38:49;1.30;;;1.30;;
4821;SDS011;2425;47.794;13.068;2023-12-20T03:41:15;1.00;;;1.00;;
4821;SDS011;2425;47.794;13.068;2023-12-20T03:43:42;0.70;;;0.70;;
4821;SDS011;2425;47.794;13.068;2023-12-20T03:46:09;0.63;;;0.63;;
4821;SDS011;2425;47.794;13.068;2023-12-20T03:48:37;0.80;;;0.80;;
4821;SDS011;2425;47.794;13.068;2023-12-20T03:51:04;0.57;;;0.57;;
4821;SDS011;2425;47.794;13.068;2023-12-20T03:53:30;0.70;;;0.70;;
4821;SDS011;2425;47.794;13.068;2023-12-20T03:55:57;0.63;;;0.63;;
4821;SDS011;2425;47.794;13.068;2023-12-20T03:58:24;0.83;;;0.83;;
4821;SDS011;2425;47.794;13.068;2023-12-20T04:00:50;0.80;;;0.80;;
4821;SDS011;2425;47.794;13.068;2023-12-20T04:03:17;0.70;;;0.70;;
4821;SDS011;2425;47.794;13.068;2023-12-20T04:05:45;0.83;;;0.83;;
4821;SDS011;2425;47.794;13.068;2023-12-20T04:08:12;0.57;;;0.57;;
4821;SDS011;2425;47.794;13.068;2023-12-20T04:10:39;0.77;;;0.77;;
4821;SDS011;2425;47.794;13.068;2023-12-20T04:13:05;0.77;;;0.77;;
4821;SDS011;2425;47.794;13.068;2023-12-20T04:15:32;0.80;;;0.80;;
4821;SDS011;2425;47.794;13.068;2023-12-20T04:17:59;0.80;;;0.80;;
4821;SDS011;2425;47.794;13.068;2023-12-20T04:20:26;0.80;;;0.80;;
4821;SDS011;2425;47.794;13.068;2023-12-20T04:22:54;0.70;;;0.70;;
4821;SDS011;2425;47.794;13.068;2023-12-20T04:25:21;0.83;;;0.83;;
4821;SDS011;2425;47.794;13.068;2023-12-20T04:27:48;0.60;;;0.60;;
4821;SDS011;2425;47.794;13.068;2023-12-20T04:30:14;0.70;;;0.70;;
4821;SDS011;2425;47.794;13.068;2023-12-20T04:32:41;0.77;;;0.77;;
4821;SDS011;2425;47.794;13.068;2023-12-20T04:35:08;0.77;;;0.77;;
4821;SDS011;2425;47.794;13.068;2023-12-20T04:37:34;0.80;;;0.80;;
4821;SDS011;2425;47.794;13.068;2023-12-20T04:40:03;0.70;;;0.70;;
4821;SDS011;2425;47.794;13.068;2023-12-20T04:42:31;0.77;;;0.60;;
4821;SDS011;2425;47.794;13.068;2023-12-20T04:44:58;0.70;;;0.70;;
4821;SDS011;2425;47.794;13.068;2023-12-20T04:47:24;0.80;;;0.80;;
4821;SDS011;2425;47.794;13.068;2023-12-20T04:49:51;0.97;;;0.97;;
4821;SDS011;2425;47.794;13.068;2023-12-20T04:52:18;0.80;;;0.80;;
4821;SDS011;2425;47.794;13.068;2023-12-20T04:54:45;0.63;;;0.63;;
4821;SDS011;2425;47.794;13.068;2023-12-20T04:57:13;0.93;;;0.93;;
4821;SDS011;2425;47.794;13.068;2023-12-20T04:59:39;0.50;;;0.50;;
4821;SDS011;2425;47.794;13.068;2023-12-20T05:02:06;0.73;;;0.73;;
4821;SDS011;2425;47.794;13.068;2023-12-20T05:04:33;0.57;;;0.57;;
4821;SDS011;2425;47.794;13.068;2023-12-20T05:07:00;0.60;;;0.60;;
4821;SDS011;2425;47.794;13.068;2023-12-20T05:09:26;0.87;;;0.87;;
4821;SDS011;2425;47.794;13.068;2023-12-20T05:11:53;0.60;;;0.60;;
4821;SDS011;2425;47.794;13.068;2023-12-20T05:14:21;0.70;;;0.70;;
4821;SDS011;2425;47.794;13.068;2023-12-20T05:16:48;0.60;;;0.60;;
4821;SDS011;2425;47.794;13.068;2023-12-20T05:19:17;0.60;;;0.60;;
4821;SDS011;2425;47.794;13.068;2023-12-20T05:21:44;0.73;;;0.73;;
4821;SDS011;2425;47.794;13.068;2023-12-20T05:24:10;0.57;;;0.57;;
4821;SDS011;2425;47.794;13.068;2023-12-20T05:26:37;0.90;;;0.90;;
4821;SDS011;2425;47.794;13.068;2023-12-20T05:29:04;0.70;;;0.70;;
4821;SDS011;2425;47.794;13.068;2023-12-20T05:31:32;0.87;;;0.87;;
4821;SDS011;2425;47.794;13.068;2023-12-20T05:33:59;0.73;;;0.73;;
4821;SDS011;2425;47.794;13.068;2023-12-20T05:36:25;0.67;;;0.67;;
4821;SDS011;2425;47.794;13.068;2023-12-20T05:38:52;1.00;;;1.00;;
4821;SDS011;2425;47.794;13.068;2023-12-20T05:41:19;0.80;;;0.80;;
4821;SDS011;2425;47.794;13.068;2023-12-20T05:43:46;0.70;;;0.70;;
4821;SDS011;2425;47.794;13.068;2023-12-20T05:46:13;0.40;;;0.40;;
4821;SDS011;2425;47.794;13.068;2023-12-20T05:48:41;1.00;;;1.00;;
4821;SDS011;2425;47.794;13.068;2023-12-20T05:51:07;0.87;;;0.87;;
4821;SDS011;2425;47.794;13.068;2023-12-20T05:53:34;0.70;;;0.70;;
4821;SDS011;2425;47.794;13.068;2023-12-20T05:56:01;0.70;;;0.70;;
4821;SDS011;2425;47.794;13.068;2023-12-20T05:58:27;0.80;;;0.80;;
4821;SDS011;2425;47.794;13.068;2023-12-20T06:00:54;0.73;;;0.70;;
4821;SDS011;2425;47.794;13.068;2023-12-20T06:03:21;0.60;;;0.60;;
4821;SDS011;2425;47.794;13.068;2023-12-20T06:05:50;0.70;;;0.70;;
4821;SDS011;2425;47.794;13.068;2023-12-20T06:08:17;0.70;;;0.70;;
4821;SDS011;2425;47.794;13.068;2023-12-20T06:10:44;0.70;;;0.70;;
4821;SDS011;2425;47.794;13.068;2023-12-20T06:13:11;0.70;;;0.70;;
4821;SDS011;2425;47.794;13.068;2023-12-20T06:15:38;0.87;;;0.60;;
4821;SDS011;2425;47.794;13.068;2023-12-20T06:18:05;0.60;;;0.60;;
4821;SDS011;2425;47.794;13.068;2023-12-20T06:20:32;0.70;;;0.70;;
4821;SDS011;2425;47.794;13.068;2023-12-20T06:23:00;0.63;;;0.63;;
4821;SDS011;2425;47.794;13.068;2023-12-20T06:25:26;0.70;;;0.70;;
4821;SDS011;2425;47.794;13.068;2023-12-20T06:27:53;0.70;;;0.70;;
4821;SDS011;2425;47.794;13.068;2023-12-20T06:30:20;0.50;;;0.50;;
4821;SDS011;2425;47.794;13.068;2023-12-20T06:32:47;0.70;;;0.70;;
4821;SDS011;2425;47.794;13.068;2023-12-20T06:35:13;0.90;;;0.90;;
4821;SDS011;2425;47.794;13.068;2023-12-20T06:37:41;0.70;;;0.70;;
4821;SDS011;2425;47.794;13.068;2023-12-20T06:40:10;0.87;;;0.87;;
4821;SDS011;2425;47.794;13.068;2023-12-20T06:42:37;0.63;;;0.63;;
4821;SDS011;2425;47.794;13.068;2023-12-20T06:45:04;0.60;;;0.60;;
4821;SDS011;2425;47.794;13.068;2023-12-20T06:47:31;0.70;;;0.70;;
4821;SDS011;2425;47.794;13.068;2023-12-20T06:49:58;0.53;;;0.53;;
4821;SDS011;2425;47.794;13.068;2023-12-20T06:52:25;0.50;;;0.43;;
4821;SDS011;2425;47.794;13.068;2023-12-20T06:54:52;0.70;;;0.70;;
4821;SDS011;2425;47.794;13.068;2023-12-20T06:57:20;0.60;;;0.60;;
4821;SDS011;2425;47.794;13.068;2023-12-20T06:59:47;0.70;;;0.70;;
4821;SDS011;2425;47.794;13.068;2023-12-20T07:02:14;0.80;;;0.80;;
4821;SDS011;2425;47.794;13.068;2023-12-20T07:04:40;1.07;;;0.60;;
4821;SDS011;2425;47.794;13.068;2023-12-20T07:07:07;0.50;;;0.50;;
4821;SDS011;2425;47.794;13.068;2023-12-20T07:09:34;0.70;;;0.70;;
4821;SDS011;2425;47.794;13.068;2023-12-20T07:12:01;0.43;;;0.43;;
4821;SDS011;2425;47.794;13.068;2023-12-20T07:14:29;0.60;;;0.60;;
4821;SDS011;2425;47.794;13.068;2023-12-20T07:16:56;0.57;;;0.57;;
4821;SDS011;2425;47.794;13.068;2023-12-20T07:19:23;0.67;;;0.67;;
4821;SDS011;2425;47.794;13.068;2023-12-20T07:21:49;1.23;;;0.70;;
4821;SDS011;2425;47.794;13.068;2023-12-20T07:24:16;0.60;;;0.60;;
4821;SDS011;2425;47.794;13.068;2023-12-20T07:26:43;0.80;;;0.80;;
4821;SDS011;2425;47.794;13.068;2023-12-20T07:29:10;0.63;;;0.63;;
4821;SDS011;2425;47.794;13.068;2023-12-20T07:31:38;0.60;;;0.60;;
4821;SDS011;2425;47.794;13.068;2023-12-20T07:34:05;0.80;;;0.80;;
4821;SDS011;2425;47.794;13.068;2023-12-20T07:36:31;0.60;;;0.60;;
4821;SDS011;2425;47.794;13.068;2023-12-20T07:38:58;0.60;;;0.60;;
4821;SDS011;2425;47.794;13.068;2023-12-20T07:41:25;0.80;;;0.80;;
4821;SDS011;2425;47.794;13.068;2023-12-20T07:43:51;0.63;;;0.63;;
4821;SDS011;2425;47.794;13.068;2023-12-20T07:46:19;0.43;;;0.43;;
4821;SDS011;2425;47.794;13.068;2023-12-20T07:48:49;0.60;;;0.60;;
4821;SDS011;2425;47.794;13.068;2023-12-20T07:51:15;0.60;;;0.60;;
4821;SDS011;2425;47.794;13.068;2023-12-20T07:53:42;0.73;;;0.73;;
4821;SDS011;2425;47.794;13.068;2023-12-20T07:56:15;0.73;;;0.73;;
4821;SDS011;2425;47.794;13.068;2023-12-20T07:58:42;0.70;;;0.70;;
4821;SDS011;2425;47.794;13.068;2023-12-20T08:01:09;0.80;;;0.80;;
4821;SDS011;2425;47.794;13.068;2023-12-20T08:03:36;0.60;;;0.60;;
4821;SDS011;2425;47.794;13.068;2023-12-20T08:06:04;0.70;;;0.70;;
4821;SDS011;2425;47.794;13.068;2023-12-20T08:08:31;0.63;;;0.63;;
4821;SDS011;2425;47.794;13.068;2023-12-20T08:10:58;0.57;;;0.57;;
4821;SDS011;2425;47.794;13.068;2023-12-20T08:13:25;0.60;;;0.60;;
4821;SDS011;2425;47.794;13.068;2023-12-20T08:15:52;0.67;;;0.67;;
4821;SDS011;2425;47.794;13.068;2023-12-20T08:18:21;0.70;;;0.70;;
4821;SDS011;2425;47.794;13.068;2023-12-20T08:20:47;0.40;;;0.40;;
4821;SDS011;2425;47.794;13.068;2023-12-20T08:23:16;0.67;;;0.67;;
4821;SDS011;2425;47.794;13.068;2023-12-20T08:25:42;0.50;;;0.50;;
4821;SDS011;2425;47.794;13.068;2023-12-20T08:28:09;0.40;;;0.40;;
4821;SDS011;2425;47.794;13.068;2023-12-20T08:30:36;0.50;;;0.50;;
4821;SDS011;2425;47.794;13.068;2023-12-20T08:33:03;0.60;;;0.60;;
4821;SDS011;2425;47.794;13.068;2023-12-20T08:35:30;0.60;;;0.60;;
4821;SDS011;2425;47.794;13.068;2023-12-20T08:37:56;0.60;;;0.60;;
4821;SDS011;2425;47.794;13.068;2023-12-20T08:40:24;0.67;;;0.67;;
4821;SDS011;2425;47.794;13.068;2023-12-20T08:42:51;0.50;;;0.50;;
4821;SDS011;2425;47.794;13.068;2023-12-20T08:45:18;0.50;;;0.50;;
4821;SDS011;2425;47.794;13.068;2023-12-20T08:47:48;0.50;;;0.50;;
4821;SDS011;2425;47.794;13.068;2023-12-20T08:50:28;0.60;;;0.60;;
4821;SDS011;2425;47.794;13.068;2023-12-20T08:53:02;0.67;;;0.67;;
4821;SDS011;2425;47.794;13.068;2023-12-20T08:55:30;0.50;;;0.50;;
4821;SDS011;2425;47.794;13.068;2023-12-20T08:57:57;0.60;;;0.60;;
4821;SDS011;2425;47.794;13.068;2023-12-20T09:00:24;0.68;;;0.63;;
4821;SDS011;2425;47.794;13.068;2023-12-20T09:02:52;0.90;;;0.90;;
4821;SDS011;2425;47.794;13.068;2023-12-20T09:05:19;0.90;;;0.90;;
4821;SDS011;2425;47.794;13.068;2023-12-20T09:07:46;1.63;;;1.07;;
4821;SDS011;2425;47.794;13.068;2023-12-20T09:10:12;8.53;;;1.10;;
4821;SDS011;2425;47.794;13.068;2023-12-20T09:12:40;8.13;;;1.20;;
4821;SDS011;2425;47.794;13.068;2023-12-20T09:15:07;1.13;;;1.03;;
4821;SDS011;2425;47.794;13.068;2023-12-20T09:17:34;14.53;;;1.20;;
4821;SDS011;2425;47.794;13.068;2023-12-20T09:20:01;1.00;;;1.00;;
4821;SDS011;2425;47.794;13.068;2023-12-20T09:22:31;1.30;;;1.30;;
4821;SDS011;2425;47.794;13.068;2023-12-20T09:24:57;1.40;;;1.30;;
4821;SDS011;2425;47.794;13.068;2023-12-20T09:27:24;9.07;;;1.20;;
4821;SDS011;2425;47.794;13.068;2023-12-20T09:29:52;1.83;;;1.17;;
4821;SDS011;2425;47.794;13.068;2023-12-20T09:32:19;1.40;;;1.40;;
4821;SDS011;2425;47.794;13.068;2023-12-20T09:34:46;1.57;;;1.40;;
4821;SDS011;2425;47.794;13.068;2023-12-20T09:37:14;1.10;;;1.10;;
4821;SDS011;2425;47.794;13.068;2023-12-20T09:39:40;1.63;;;1.53;;
4821;SDS011;2425;47.794;13.068;2023-12-20T09:42:07;1.20;;;1.20;;
4821;SDS011;2425;47.794;13.068;2023-12-20T09:44:34;2.10;;;1.50;;
4821;SDS011;2425;47.794;13.068;2023-12-20T09:47:03;3.80;;;1.25;;
4821;SDS011;2425;47.794;13.068;2023-12-20T09:49:30;1.60;;;1.17;;
4821;SDS011;2425;47.794;13.068;2023-12-20T09:51:57;6.13;;;1.70;;
4821;SDS011;2425;47.794;13.068;2023-12-20T09:54:24;12.70;;;2.67;;
4821;SDS011;2425;47.794;13.068;2023-12-20T09:56:52;30.90;;;5.47;;
4821;SDS011;2425;47.794;13.068;2023-12-20T09:59:19;34.57;;;6.37;;
4821;SDS011;2425;47.794;13.068;2023-12-20T10:01:45;25.87;;;6.40;;
4821;SDS011;2425;47.794;13.068;2023-12-20T10:04:13;29.50;;;6.80;;
4821;SDS011;2425;47.794;13.068;2023-12-20T10:06:41;38.73;;;7.30;;
4821;SDS011;2425;47.794;13.068;2023-12-20T10:09:09;24.73;;;7.17;;
4821;SDS011;2425;47.794;13.068;2023-12-20T10:11:36;24.70;;;7.43;;
4821;SDS011;2425;47.794;13.068;2023-12-20T10:14:03;28.93;;;6.80;;
4821;SDS011;2425;47.794;13.068;2023-12-20T10:16:30;29.37;;;7.10;;
4821;SDS011;2425;47.794;13.068;2023-12-20T10:18:57;22.80;;;6.93;;
4821;SDS011;2425;47.794;13.068;2023-12-20T10:21:26;40.87;;;8.90;;
4821;SDS011;2425;47.794;13.068;2023-12-20T10:23:53;29.80;;;8.17;;
4821;SDS011;2425;47.794;13.068;2023-12-20T10:26:22;25.80;;;8.17;;
4821;SDS011;2425;47.794;13.068;2023-12-20T10:28:50;25.90;;;7.27;;
4821;SDS011;2425;47.794;13.068;2023-12-20T10:31:27;30.27;;;7.53;;
4821;SDS011;2425;47.794;13.068;2023-12-20T10:33:56;25.30;;;7.07;;
4821;SDS011;2425;47.794;13.068;2023-12-20T10:36:22;27.77;;;7.63;;
4821;SDS011;2425;47.794;13.068;2023-12-20T10:38:53;21.43;;;7.00;;
4821;SDS011;2425;47.794;13.068;2023-12-20T10:41:21;21.87;;;6.30;;
4821;SDS011;2425;47.794;13.068;2023-12-20T10:43:51;24.73;;;6.73;;
4821;SDS011;2425;47.794;13.068;2023-12-20T10:46:18;25.00;;;7.23;;
4821;SDS011;2425;47.794;13.068;2023-12-20T10:48:45;19.23;;;6.53;;
4821;SDS011;2425;47.794;13.068;2023-12-20T10:51:13;21.53;;;6.23;;
4821;SDS011;2425;47.794;13.068;2023-12-20T10:53:40;17.37;;;5.90;;
4821;SDS011;2425;47.794;13.068;2023-12-20T10:56:09;19.13;;;6.43;;
4821;SDS011;2425;47.794;13.068;2023-12-20T10:58:38;18.10;;;5.90;;
4821;SDS011;2425;47.794;13.068;2023-12-20T11:01:08;17.47;;;5.43;;
4821;SDS011;2425;47.794;13.068;2023-12-20T11:03:35;14.70;;;5.43;;
4821;SDS011;2425;47.794;13.068;2023-12-20T11:06:04;17.63;;;6.17;;
4821;SDS011;2425;47.794;13.068;2023-12-20T11:08:36;13.80;;;5.97;;
4821;SDS011;2425;47.794;13.068;2023-12-20T11:11:06;17.70;;;5.33;;
4821;SDS011;2425;47.794;13.068;2023-12-20T11:13:37;18.97;;;5.90;;
4821;SDS011;2425;47.794;13.068;2023-12-20T11:16:07;21.73;;;6.03;;
4821;SDS011;2425;47.794;13.068;2023-12-20T11:18:33;15.90;;;5.47;;
4821;SDS011;2425;47.794;13.068;2023-12-20T11:21:01;15.03;;;5.40;;
4821;SDS011;2425;47.794;13.068;2023-12-20T11:23:29;12.10;;;6.00;;
4821;SDS011;2425;47.794;13.068;2023-12-20T11:25:56;15.03;;;5.60;;
4821;SDS011;2425;47.794;13.068;2023-12-20T11:28:25;14.10;;;4.93;;
4821;SDS011;2425;47.794;13.068;2023-12-20T11:30:53;13.83;;;4.87;;
4821;SDS011;2425;47.794;13.068;2023-12-20T11:33:23;13.80;;;4.73;;
4821;SDS011;2425;47.794;13.068;2023-12-20T11:35:50;11.07;;;4.70;;
4821;SDS011;2425;47.794;13.068;2023-12-20T11:38:19;11.37;;;4.73;;
4821;SDS011;2425;47.794;13.068;2023-12-20T11:40:47;14.40;;;5.00;;
4821;SDS011;2425;47.794;13.068;2023-12-20T11:43:30;12.23;;;4.50;;
4821;SDS011;2425;47.794;13.068;2023-12-20T11:46:02;9.37;;;4.53;;
4821;SDS011;2425;47.794;13.068;2023-12-20T11:48:29;13.20;;;4.80;;
4821;SDS011;2425;47.794;13.068;2023-12-20T11:50:57;9.40;;;4.50;;
4821;SDS011;2425;47.794;13.068;2023-12-20T11:53:24;12.37;;;4.80;;
4821;SDS011;2425;47.794;13.068;2023-12-20T11:55:51;14.90;;;4.50;;
4821;SDS011;2425;47.794;13.068;2023-12-20T11:58:18;10.60;;;3.83;;
4821;SDS011;2425;47.794;13.068;2023-12-20T12:00:46;11.30;;;4.23;;
4821;SDS011;2425;47.794;13.068;2023-12-20T12:03:15;7.87;;;3.40;;
4821;SDS011;2425;47.794;13.068;2023-12-20T12:05:42;8.53;;;3.63;;
4821;SDS011;2425;47.794;13.068;2023-12-20T12:08:08;9.80;;;4.40;;
4821;SDS011;2425;47.794;13.068;2023-12-20T12:10:35;8.63;;;3.90;;
4821;SDS011;2425;47.794;13.068;2023-12-20T12:13:02;10.03;;;3.90;;
4821;SDS011;2425;47.794;13.068;2023-12-20T12:15:29;6.10;;;3.40;;
4821;SDS011;2425;47.794;13.068;2023-12-20T12:17:57;10.27;;;4.00;;
4821;SDS011;2425;47.794;13.068;2023-12-20T12:20:24;9.10;;;4.20;;
4821;SDS011;2425;47.794;13.068;2023-12-20T12:22:57;6.70;;;2.93;;
4821;SDS011;2425;47.794;13.068;2023-12-20T12:25:24;7.90;;;4.13;;
4821;SDS011;2425;47.794;13.068;2023-12-20T12:27:52;10.00;;;3.60;;
4821;SDS011;2425;47.794;13.068;2023-12-20T12:30:18;6.70;;;3.77;;
4821;SDS011;2425;47.794;13.068;2023-12-20T12:32:46;5.93;;;3.43;;
4821;SDS011;2425;47.794;13.068;2023-12-20T12:35:14;6.27;;;3.17;;
4821;SDS011;2425;47.794;13.068;2023-12-20T12:37:41;7.40;;;3.43;;
4821;SDS011;2425;47.794;13.068;2023-12-20T12:40:09;5.00;;;3.33;;
4821;SDS011;2425;47.794;13.068;2023-12-20T12:42:36;6.70;;;3.60;;
4821;SDS011;2425;47.794;13.068;2023-12-20T12:45:04;7.77;;;2.97;;
4821;SDS011;2425;47.794;13.068;2023-12-20T12:47:31;5.30;;;3.00;;
4821;SDS011;2425;47.794;13.068;2023-12-20T12:49:58;8.60;;;3.40;;
4821;SDS011;2425;47.794;13.068;2023-12-20T12:52:26;5.43;;;3.00;;
4821;SDS011;2425;47.794;13.068;2023-12-20T12:54:53;12.90;;;3.37;;
4821;SDS011;2425;47.794;13.068;2023-12-20T12:57:20;4.63;;;2.70;;
4821;SDS011;2425;47.794;13.068;2023-12-20T12:59:46;6.30;;;3.00;;
4821;SDS011;2425;47.794;13.068;2023-12-20T13:02:13;8.60;;;3.33;;
4821;SDS011;2425;47.794;13.068;2023-12-20T13:04:40;10.60;;;2.87;;
4821;SDS011;2425;47.794;13.068;2023-12-20T13:07:08;6.77;;;3.10;;
4821;SDS011;2425;47.794;13.068;2023-12-20T13:09:37;8.87;;;3.07;;
4821;SDS011;2425;47.794;13.068;2023-12-20T13:12:04;7.50;;;2.93;;
4821;SDS011;2425;47.794;13.068;2023-12-20T13:14:31;6.20;;;2.43;;
4821;SDS011;2425;47.794;13.068;2023-12-20T13:16:59;6.07;;;3.00;;
4821;SDS011;2425;47.794;13.068;2023-12-20T13:19:26;5.57;;;2.70;;
4821;SDS011;2425;47.794;13.068;2023-12-20T13:21:53;4.70;;;2.47;;
4821;SDS011;2425;47.794;13.068;2023-12-20T13:24:19;5.57;;;2.67;;
4821;SDS011;2425;47.794;13.068;2023-12-20T13:26:47;5.10;;;2.73;;
4821;SDS011;2425;47.794;13.068;2023-12-20T13:29:14;5.30;;;3.00;;
4821;SDS011;2425;47.794;13.068;2023-12-20T13:31:41;5.07;;;3.10;;
4821;SDS011;2425;47.794;13.068;2023-12-20T13:34:08;6.77;;;2.87;;
4821;SDS011;2425;47.794;13.068;2023-12-20T13:36:33;8.90;;;2.90;;
4821;SDS011;2425;47.794;13.068;2023-12-20T13:39:01;5.77;;;3.20;;
4821;SDS011;2425;47.794;13.068;2023-12-20T13:41:29;9.93;;;3.13;;
4821;SDS011;2425;47.794;13.068;2023-12-20T13:43:57;7.30;;;2.67;;
4821;SDS011;2425;47.794;13.068;2023-12-20T13:46:24;6.20;;;2.37;;
4821;SDS011;2425;47.794;13.068;2023-12-20T13:48:51;4.00;;;2.27;;
4821;SDS011;2425;47.794;13.068;2023-12-20T13:51:17;6.07;;;2.80;;
4821;SDS011;2425;47.794;13.068;2023-12-20T13:53:45;4.80;;;2.53;;
4821;SDS011;2425;47.794;13.068;2023-12-20T13:56:14;2.93;;;2.20;;
4821;SDS011;2425;47.794;13.068;2023-12-20T13:58:41;2.27;;;1.90;;
4821;SDS011;2425;47.794;13.068;2023-12-20T14:01:09;3.40;;;2.03;;
4821;SDS011;2425;47.794;13.068;2023-12-20T14:03:36;6.20;;;2.73;;
4821;SDS011;2425;47.794;13.068;2023-12-20T14:06:03;3.50;;;2.30;;
4821;SDS011;2425;47.794;13.068;2023-12-20T14:08:30;6.00;;;2.73;;
4821;SDS011;2425;47.794;13.068;2023-12-20T14:10:57;6.33;;;2.43;;
4821;SDS011;2425;47.794;13.068;2023-12-20T14:13:23;3.73;;;1.93;;
4821;SDS011;2425;47.794;13.068;2023-12-20T14:15:50;4.43;;;2.00;;
4821;SDS011;2425;47.794;13.068;2023-12-20T14:18:18;4.20;;;2.00;;
4821;SDS011;2425;47.794;13.068;2023-12-20T14:20:45;2.53;;;1.93;;
4821;SDS011;2425;47.794;13.068;2023-12-20T14:23:12;9.33;;;2.10;;
4821;SDS011;2425;47.794;13.068;2023-12-20T14:25:39;3.63;;;1.67;;
4821;SDS011;2425;47.794;13.068;2023-12-20T14:28:06;3.77;;;2.37;;
4821;SDS011;2425;47.794;13.068;2023-12-20T14:30:35;7.50;;;2.35;;
4821;SDS011;2425;47.794;13.068;2023-12-20T14:33:03;3.53;;;2.00;;
4821;SDS011;2425;47.794;13.068;2023-12-20T14:35:32;4.67;;;1.93;;
4821;SDS011;2425;47.794;13.068;2023-12-20T14:37:58;2.90;;;2.13;;
4821;SDS011;2425;47.794;13.068;2023-12-20T14:40:26;3.43;;;1.67;;
4821;SDS011;2425;47.794;13.068;2023-12-20T14:42:52;2.33;;;1.60;;
4821;SDS011;2425;47.794;13.068;2023-12-20T14:45:19;2.37;;;1.90;;
4821;SDS011;2425;47.794;13.068;2023-12-20T14:47:46;2.80;;;1.80;;
4821;SDS011;2425;47.794;13.068;2023-12-20T14:50:13;3.20;;;2.53;;
4821;SDS011;2425;47.794;13.068;2023-12-20T14:52:44;1.60;;;1.50;;
4821;SDS011;2425;47.794;13.068;2023-12-20T14:55:11;1.90;;;1.70;;
4821;SDS011;2425;47.794;13.068;2023-12-20T14:57:38;1.50;;;1.40;;
4821;SDS011;2425;47.794;13.068;2023-12-20T15:00:05;1.63;;;1.43;;